Terminal Aerodrome Forecast
Issued by NWS

Home | Current Version | Previous Version | Text Only | Print | Product List | Glossary On
Versions: 1 2 3 4 5 6 7 8 9 10 11 12 13 14 15
000
FTUS45 KPSR 250520
TAFIWA
TAF
KIWA 250520Z 2506/2606 VRB05KT P6SM SKC
     FM250800 14006KT P6SM SKC
     FM251900 24014G24KT P6SM FEW140
     FM260400 26008KT P6SM FEW200
      AMD LTD TO CLD VIS AND WIND TIL 251300=

USA.gov is the U.S. government's official web portal to all federal, state and local government web resources and services.